sensor_id;sensor_type;location;lat;lon;timestamp;P1;durP1;ratioP1;P2;durP2;ratioP2
67508;SDS011;54354;44.724;11.284;2022-12-29T00:01:14;122.65;;;59.08;;
67508;SDS011;54354;44.724;11.284;2022-12-29T00:03:39;125.30;;;61.22;;
67508;SDS011;54354;44.724;11.284;2022-12-29T00:06:04;130.15;;;63.28;;
67508;SDS011;54354;44.724;11.284;2022-12-29T00:08:30;127.35;;;60.80;;
67508;SDS011;54354;44.724;11.284;2022-12-29T00:11:23;133.55;;;61.42;;
67508;SDS011;54354;44.724;11.284;2022-12-29T00:13:50;126.55;;;61.13;;
67508;SDS011;54354;44.724;11.284;2022-12-29T00:16:35;127.65;;;59.70;;
67508;SDS011;54354;44.724;11.284;2022-12-29T00:19:02;133.27;;;62.83;;
67508;SDS011;54354;44.724;11.284;2022-12-29T00:21:28;130.88;;;60.92;;
67508;SDS011;54354;44.724;11.284;2022-12-29T00:24:13;128.07;;;61.22;;
67508;SDS011;54354;44.724;11.284;2022-12-29T00:29:46;128.70;;;62.58;;
67508;SDS011;54354;44.724;11.284;2022-12-29T00:32:38;126.22;;;60.53;;
67508;SDS011;54354;44.724;11.284;2022-12-29T00:35:24;123.47;;;59.35;;
67508;SDS011;54354;44.724;11.284;2022-12-29T00:37:53;117.65;;;57.20;;
67508;SDS011;54354;44.724;11.284;2022-12-29T00:40:40;126.18;;;60.28;;
67508;SDS011;54354;44.724;11.284;2022-12-29T00:43:24;121.45;;;58.97;;
67508;SDS011;54354;44.724;11.284;2022-12-29T00:46:08;126.78;;;58.42;;
67508;SDS011;54354;44.724;11.284;2022-12-29T00:48:34;124.35;;;59.13;;
67508;SDS011;54354;44.724;11.284;2022-12-29T00:51:18;124.57;;;59.42;;
67508;SDS011;54354;44.724;11.284;2022-12-29T00:53:44;124.18;;;57.45;;
67508;SDS011;54354;44.724;11.284;2022-12-29T00:56:09;124.47;;;58.83;;
67508;SDS011;54354;44.724;11.284;2022-12-29T00:58:35;120.97;;;57.80;;
67508;SDS011;54354;44.724;11.284;2022-12-29T01:01:01;121.10;;;59.00;;
67508;SDS011;54354;44.724;11.284;2022-12-29T01:03:27;118.03;;;58.88;;
67508;SDS011;54354;44.724;11.284;2022-12-29T01:05:53;120.57;;;58.78;;
67508;SDS011;54354;44.724;11.284;2022-12-29T01:08:18;120.95;;;58.47;;
67508;SDS011;54354;44.724;11.284;2022-12-29T01:10:44;126.40;;;59.65;;
67508;SDS011;54354;44.724;11.284;2022-12-29T01:13:10;116.70;;;58.70;;
67508;SDS011;54354;44.724;11.284;2022-12-29T01:15:36;116.32;;;57.97;;
67508;SDS011;54354;44.724;11.284;2022-12-29T01:18:01;115.45;;;57.30;;
67508;SDS011;54354;44.724;11.284;2022-12-29T01:20:26;119.43;;;57.33;;
67508;SDS011;54354;44.724;11.284;2022-12-29T01:22:53;123.43;;;57.85;;
67508;SDS011;54354;44.724;11.284;2022-12-29T01:25:19;127.47;;;57.75;;
67508;SDS011;54354;44.724;11.284;2022-12-29T01:27:45;119.32;;;58.53;;
67508;SDS011;54354;44.724;11.284;2022-12-29T01:30:11;121.90;;;58.03;;
67508;SDS011;54354;44.724;11.284;2022-12-29T01:32:37;118.32;;;59.70;;
67508;SDS011;54354;44.724;11.284;2022-12-29T01:35:03;114.78;;;56.92;;
67508;SDS011;54354;44.724;11.284;2022-12-29T01:37:29;116.15;;;56.88;;
67508;SDS011;54354;44.724;11.284;2022-12-29T01:39:54;116.22;;;56.33;;
67508;SDS011;54354;44.724;11.284;2022-12-29T01:42:22;124.78;;;58.42;;
67508;SDS011;54354;44.724;11.284;2022-12-29T01:47:37;124.00;;;57.33;;
67508;SDS011;54354;44.724;11.284;2022-12-29T01:50:09;111.78;;;54.42;;
67508;SDS011;54354;44.724;11.284;2022-12-29T01:52:48;123.10;;;58.17;;
67508;SDS011;54354;44.724;11.284;2022-12-29T01:55:20;126.38;;;58.88;;
67508;SDS011;54354;44.724;11.284;2022-12-29T01:57:47;123.60;;;59.00;;
67508;SDS011;54354;44.724;11.284;2022-12-29T02:00:16;124.18;;;57.08;;
67508;SDS011;54354;44.724;11.284;2022-12-29T02:02:46;119.53;;;57.27;;
67508;SDS011;54354;44.724;11.284;2022-12-29T02:05:24;121.43;;;57.13;;
67508;SDS011;54354;44.724;11.284;2022-12-29T02:08:00;120.95;;;56.30;;
67508;SDS011;54354;44.724;11.284;2022-12-29T02:10:27;119.45;;;55.40;;
67508;SDS011;54354;44.724;11.284;2022-12-29T02:12:55;116.22;;;56.70;;
67508;SDS011;54354;44.724;11.284;2022-12-29T02:15:25;124.35;;;58.00;;
67508;SDS011;54354;44.724;11.284;2022-12-29T02:18:03;116.35;;;54.72;;
67508;SDS011;54354;44.724;11.284;2022-12-29T02:33:52;127.97;;;59.08;;
67508;SDS011;54354;44.724;11.284;2022-12-29T02:36:39;132.18;;;61.83;;
67508;SDS011;54354;44.724;11.284;2022-12-29T02:42:16;126.80;;;59.65;;
67508;SDS011;54354;44.724;11.284;2022-12-29T02:45:12;133.32;;;58.45;;
67508;SDS011;54354;44.724;11.284;2022-12-29T02:50:31;134.70;;;59.65;;
67508;SDS011;54354;44.724;11.284;2022-12-29T02:53:01;125.45;;;59.03;;
67508;SDS011;54354;44.724;11.284;2022-12-29T02:55:33;128.43;;;61.78;;
67508;SDS011;54354;44.724;11.284;2022-12-29T03:01:07;134.82;;;62.78;;
67508;SDS011;54354;44.724;11.284;2022-12-29T03:06:27;130.88;;;60.20;;
67508;SDS011;54354;44.724;11.284;2022-12-29T03:11:48;126.60;;;60.70;;
67508;SDS011;54354;44.724;11.284;2022-12-29T03:17:29;125.72;;;59.70;;
67508;SDS011;54354;44.724;11.284;2022-12-29T03:20:08;127.47;;;60.35;;
67508;SDS011;54354;44.724;11.284;2022-12-29T03:22:39;139.13;;;59.20;;
67508;SDS011;54354;44.724;11.284;2022-12-29T03:25:16;119.43;;;57.15;;
67508;SDS011;54354;44.724;11.284;2022-12-29T03:27:48;124.53;;;59.47;;
67508;SDS011;54354;44.724;11.284;2022-12-29T03:30:18;125.40;;;60.70;;
67508;SDS011;54354;44.724;11.284;2022-12-29T03:32:45;127.72;;;59.75;;
67508;SDS011;54354;44.724;11.284;2022-12-29T03:35:15;129.52;;;62.80;;
67508;SDS011;54354;44.724;11.284;2022-12-29T03:37:52;129.32;;;60.05;;
67508;SDS011;54354;44.724;11.284;2022-12-29T03:40:24;122.97;;;58.45;;
67508;SDS011;54354;44.724;11.284;2022-12-29T03:42:52;123.35;;;57.45;;
67508;SDS011;54354;44.724;11.284;2022-12-29T03:45:18;120.35;;;57.60;;
67508;SDS011;54354;44.724;11.284;2022-12-29T03:47:44;125.80;;;56.80;;
67508;SDS011;54354;44.724;11.284;2022-12-29T03:50:12;124.32;;;56.80;;
67508;SDS011;54354;44.724;11.284;2022-12-29T03:52:40;118.07;;;57.92;;
67508;SDS011;54354;44.724;11.284;2022-12-29T03:55:06;120.22;;;55.67;;
67508;SDS011;54354;44.724;11.284;2022-12-29T03:57:32;125.18;;;59.28;;
67508;SDS011;54354;44.724;11.284;2022-12-29T04:00:01;123.85;;;57.60;;
67508;SDS011;54354;44.724;11.284;2022-12-29T04:02:29;128.63;;;60.03;;
67508;SDS011;54354;44.724;11.284;2022-12-29T04:04:55;121.95;;;57.25;;
67508;SDS011;54354;44.724;11.284;2022-12-29T04:07:21;121.43;;;57.05;;
67508;SDS011;54354;44.724;11.284;2022-12-29T04:09:47;122.80;;;58.05;;
67508;SDS011;54354;44.724;11.284;2022-12-29T04:12:19;129.15;;;58.25;;
67508;SDS011;54354;44.724;11.284;2022-12-29T04:14:45;133.95;;;62.03;;
67508;SDS011;54354;44.724;11.284;2022-12-29T04:17:11;124.68;;;58.88;;
67508;SDS011;54354;44.724;11.284;2022-12-29T04:19:38;124.63;;;58.08;;
67508;SDS011;54354;44.724;11.284;2022-12-29T04:22:04;129.07;;;60.67;;
67508;SDS011;54354;44.724;11.284;2022-12-29T04:24:30;133.10;;;62.45;;
67508;SDS011;54354;44.724;11.284;2022-12-29T04:26:55;125.78;;;59.97;;
67508;SDS011;54354;44.724;11.284;2022-12-29T04:29:29;125.47;;;59.10;;
67508;SDS011;54354;44.724;11.284;2022-12-29T04:32:23;126.53;;;59.00;;
67508;SDS011;54354;44.724;11.284;2022-12-29T04:34:51;122.25;;;56.15;;
67508;SDS011;54354;44.724;11.284;2022-12-29T04:37:18;120.70;;;57.10;;
67508;SDS011;54354;44.724;11.284;2022-12-29T04:39:44;119.13;;;58.85;;
67508;SDS011;54354;44.724;11.284;2022-12-29T04:42:10;122.57;;;58.30;;
67508;SDS011;54354;44.724;11.284;2022-12-29T04:44:36;120.13;;;55.85;;
67508;SDS011;54354;44.724;11.284;2022-12-29T04:47:24;118.00;;;56.35;;
67508;SDS011;54354;44.724;11.284;2022-12-29T04:49:57;120.57;;;56.55;;
67508;SDS011;54354;44.724;11.284;2022-12-29T04:52:34;116.72;;;56.33;;
67508;SDS011;54354;44.724;11.284;2022-12-29T04:54:59;114.00;;;54.75;;
67508;SDS011;54354;44.724;11.284;2022-12-29T04:57:25;108.57;;;55.42;;
67508;SDS011;54354;44.724;11.284;2022-12-29T04:59:55;106.43;;;53.70;;
67508;SDS011;54354;44.724;11.284;2022-12-29T05:02:21;124.20;;;56.33;;
67508;SDS011;54354;44.724;11.284;2022-12-29T05:04:49;109.90;;;53.83;;
67508;SDS011;54354;44.724;11.284;2022-12-29T05:07:15;108.60;;;53.50;;
67508;SDS011;54354;44.724;11.284;2022-12-29T05:09:42;110.78;;;53.75;;
67508;SDS011;54354;44.724;11.284;2022-12-29T05:12:09;115.35;;;54.78;;
67508;SDS011;54354;44.724;11.284;2022-12-29T05:14:40;111.13;;;53.58;;
67508;SDS011;54354;44.724;11.284;2022-12-29T05:17:06;112.88;;;55.00;;
67508;SDS011;54354;44.724;11.284;2022-12-29T05:19:32;108.00;;;53.65;;
67508;SDS011;54354;44.724;11.284;2022-12-29T05:21:58;107.05;;;51.97;;
67508;SDS011;54354;44.724;11.284;2022-12-29T05:24:23;118.20;;;54.00;;
67508;SDS011;54354;44.724;11.284;2022-12-29T05:26:52;109.78;;;53.70;;
67508;SDS011;54354;44.724;11.284;2022-12-29T05:29:31;111.20;;;53.97;;
67508;SDS011;54354;44.724;11.284;2022-12-29T05:31:57;109.50;;;53.53;;
67508;SDS011;54354;44.724;11.284;2022-12-29T05:34:22;110.68;;;53.45;;
67508;SDS011;54354;44.724;11.284;2022-12-29T05:36:48;113.50;;;55.85;;
67508;SDS011;54354;44.724;11.284;2022-12-29T05:39:14;108.80;;;52.22;;
67508;SDS011;54354;44.724;11.284;2022-12-29T05:41:42;112.05;;;52.92;;
67508;SDS011;54354;44.724;11.284;2022-12-29T05:44:26;108.72;;;52.47;;
67508;SDS011;54354;44.724;11.284;2022-12-29T05:47:08;119.40;;;54.80;;
67508;SDS011;54354;44.724;11.284;2022-12-29T05:50:03;117.90;;;55.25;;
67508;SDS011;54354;44.724;11.284;2022-12-29T05:52:51;107.82;;;52.85;;
67508;SDS011;54354;44.724;11.284;2022-12-29T05:55:17;115.30;;;54.05;;
67508;SDS011;54354;44.724;11.284;2022-12-29T05:57:45;110.45;;;53.08;;
67508;SDS011;54354;44.724;11.284;2022-12-29T06:00:13;109.05;;;55.03;;
67508;SDS011;54354;44.724;11.284;2022-12-29T06:02:44;110.18;;;53.00;;
67508;SDS011;54354;44.724;11.284;2022-12-29T06:05:10;107.97;;;53.50;;
67508;SDS011;54354;44.724;11.284;2022-12-29T06:07:37;120.00;;;56.05;;
67508;SDS011;54354;44.724;11.284;2022-12-29T06:10:04;111.30;;;54.65;;
67508;SDS011;54354;44.724;11.284;2022-12-29T06:12:35;114.25;;;54.95;;
67508;SDS011;54354;44.724;11.284;2022-12-29T06:15:01;111.63;;;54.00;;
67508;SDS011;54354;44.724;11.284;2022-12-29T06:17:26;115.50;;;55.22;;
67508;SDS011;54354;44.724;11.284;2022-12-29T06:19:53;116.10;;;54.03;;
67508;SDS011;54354;44.724;11.284;2022-12-29T06:22:19;112.43;;;53.95;;
67508;SDS011;54354;44.724;11.284;2022-12-29T06:24:45;106.60;;;51.90;;
67508;SDS011;54354;44.724;11.284;2022-12-29T06:27:11;108.38;;;54.00;;
67508;SDS011;54354;44.724;11.284;2022-12-29T06:29:39;104.78;;;51.20;;
67508;SDS011;54354;44.724;11.284;2022-12-29T06:32:07;111.97;;;52.85;;
67508;SDS011;54354;44.724;11.284;2022-12-29T06:34:33;108.78;;;53.15;;
67508;SDS011;54354;44.724;11.284;2022-12-29T06:36:58;111.43;;;52.05;;
67508;SDS011;54354;44.724;11.284;2022-12-29T06:39:24;108.28;;;52.33;;
67508;SDS011;54354;44.724;11.284;2022-12-29T06:42:01;106.88;;;54.45;;
67508;SDS011;54354;44.724;11.284;2022-12-29T06:44:43;104.22;;;51.20;;
67508;SDS011;54354;44.724;11.284;2022-12-29T06:47:10;109.93;;;54.30;;
67508;SDS011;54354;44.724;11.284;2022-12-29T06:49:36;105.45;;;51.70;;
67508;SDS011;54354;44.724;11.284;2022-12-29T06:52:01;113.18;;;55.85;;
67508;SDS011;54354;44.724;11.284;2022-12-29T06:54:29;114.55;;;54.97;;
67508;SDS011;54354;44.724;11.284;2022-12-29T06:56:58;111.03;;;53.30;;
67508;SDS011;54354;44.724;11.284;2022-12-29T06:59:24;111.75;;;53.30;;
67508;SDS011;54354;44.724;11.284;2022-12-29T07:01:50;113.82;;;54.97;;
67508;SDS011;54354;44.724;11.284;2022-12-29T07:04:15;119.90;;;55.90;;
67508;SDS011;54354;44.724;11.284;2022-12-29T07:06:41;112.05;;;53.28;;
67508;SDS011;54354;44.724;11.284;2022-12-29T07:09:07;114.40;;;53.42;;
67508;SDS011;54354;44.724;11.284;2022-12-29T07:11:33;112.03;;;54.92;;
67508;SDS011;54354;44.724;11.284;2022-12-29T07:13:59;112.50;;;53.95;;
67508;SDS011;54354;44.724;11.284;2022-12-29T07:16:24;113.90;;;53.28;;
67508;SDS011;54354;44.724;11.284;2022-12-29T07:18:50;111.28;;;54.58;;
67508;SDS011;54354;44.724;11.284;2022-12-29T07:21:16;109.10;;;52.10;;
67508;SDS011;54354;44.724;11.284;2022-12-29T07:23:42;103.25;;;51.13;;
67508;SDS011;54354;44.724;11.284;2022-12-29T07:26:09;104.10;;;53.45;;
67508;SDS011;54354;44.724;11.284;2022-12-29T07:28:36;105.95;;;50.85;;
67508;SDS011;54354;44.724;11.284;2022-12-29T07:31:03;96.88;;;49.97;;
67508;SDS011;54354;44.724;11.284;2022-12-29T07:33:29;96.18;;;50.40;;
67508;SDS011;54354;44.724;11.284;2022-12-29T07:35:54;101.72;;;50.17;;
67508;SDS011;54354;44.724;11.284;2022-12-29T07:38:20;100.47;;;51.78;;
67508;SDS011;54354;44.724;11.284;2022-12-29T07:40:46;97.22;;;50.53;;
67508;SDS011;54354;44.724;11.284;2022-12-29T07:43:11;100.18;;;50.35;;
67508;SDS011;54354;44.724;11.284;2022-12-29T07:45:48;111.28;;;53.55;;
67508;SDS011;54354;44.724;11.284;2022-12-29T07:48:15;102.03;;;50.38;;
67508;SDS011;54354;44.724;11.284;2022-12-29T07:50:41;95.40;;;49.53;;
67508;SDS011;54354;44.724;11.284;2022-12-29T07:53:06;96.75;;;50.25;;
67508;SDS011;54354;44.724;11.284;2022-12-29T07:55:32;100.80;;;49.50;;
67508;SDS011;54354;44.724;11.284;2022-12-29T07:57:57;100.55;;;50.15;;
67508;SDS011;54354;44.724;11.284;2022-12-29T08:00:25;100.45;;;49.53;;
67508;SDS011;54354;44.724;11.284;2022-12-29T08:02:51;103.55;;;51.22;;
67508;SDS011;54354;44.724;11.284;2022-12-29T08:05:16;102.15;;;51.05;;
67508;SDS011;54354;44.724;11.284;2022-12-29T08:07:43;102.40;;;50.38;;
67508;SDS011;54354;44.724;11.284;2022-12-29T08:10:09;114.85;;;57.88;;
67508;SDS011;54354;44.724;11.284;2022-12-29T08:12:36;104.13;;;53.45;;
67508;SDS011;54354;44.724;11.284;2022-12-29T08:15:03;106.60;;;50.15;;
67508;SDS011;54354;44.724;11.284;2022-12-29T08:17:29;103.43;;;51.30;;
67508;SDS011;54354;44.724;11.284;2022-12-29T08:19:54;94.32;;;49.33;;
67508;SDS011;54354;44.724;11.284;2022-12-29T08:22:19;90.63;;;48.25;;
67508;SDS011;54354;44.724;11.284;2022-12-29T08:24:45;94.05;;;49.22;;
67508;SDS011;54354;44.724;11.284;2022-12-29T08:27:10;98.03;;;49.45;;
67508;SDS011;54354;44.724;11.284;2022-12-29T08:29:36;89.47;;;48.25;;
67508;SDS011;54354;44.724;11.284;2022-12-29T08:32:01;87.65;;;47.22;;
67508;SDS011;54354;44.724;11.284;2022-12-29T08:34:27;88.20;;;48.03;;
67508;SDS011;54354;44.724;11.284;2022-12-29T08:36:52;87.95;;;47.72;;
67508;SDS011;54354;44.724;11.284;2022-12-29T08:39:18;85.60;;;46.92;;
67508;SDS011;54354;44.724;11.284;2022-12-29T08:41:43;81.32;;;45.55;;
67508;SDS011;54354;44.724;11.284;2022-12-29T08:44:09;96.82;;;49.28;;
67508;SDS011;54354;44.724;11.284;2022-12-29T08:46:34;98.32;;;47.97;;
67508;SDS011;54354;44.724;11.284;2022-12-29T08:49:00;93.00;;;48.60;;
67508;SDS011;54354;44.724;11.284;2022-12-29T08:51:25;102.55;;;49.40;;
67508;SDS011;54354;44.724;11.284;2022-12-29T08:53:51;92.97;;;48.83;;
67508;SDS011;54354;44.724;11.284;2022-12-29T08:56:20;97.57;;;48.40;;
67508;SDS011;54354;44.724;11.284;2022-12-29T08:58:52;100.72;;;50.58;;
67508;SDS011;54354;44.724;11.284;2022-12-29T09:01:20;92.78;;;47.55;;
67508;SDS011;54354;44.724;11.284;2022-12-29T09:03:46;90.78;;;48.97;;
67508;SDS011;54354;44.724;11.284;2022-12-29T09:06:12;98.82;;;48.55;;
67508;SDS011;54354;44.724;11.284;2022-12-29T09:08:37;87.30;;;47.17;;
67508;SDS011;54354;44.724;11.284;2022-12-29T09:11:10;91.40;;;48.33;;
67508;SDS011;54354;44.724;11.284;2022-12-29T09:13:38;88.80;;;47.22;;
67508;SDS011;54354;44.724;11.284;2022-12-29T09:16:04;89.28;;;46.33;;
67508;SDS011;54354;44.724;11.284;2022-12-29T09:18:30;84.30;;;46.30;;
67508;SDS011;54354;44.724;11.284;2022-12-29T09:20:59;87.82;;;46.75;;
67508;SDS011;54354;44.724;11.284;2022-12-29T09:23:26;89.72;;;47.45;;
67508;SDS011;54354;44.724;11.284;2022-12-29T09:25:53;86.25;;;46.35;;
67508;SDS011;54354;44.724;11.284;2022-12-29T09:28:19;93.75;;;48.72;;
67508;SDS011;54354;44.724;11.284;2022-12-29T09:30:45;88.55;;;48.30;;
67508;SDS011;54354;44.724;11.284;2022-12-29T09:33:11;91.30;;;47.63;;
67508;SDS011;54354;44.724;11.284;2022-12-29T09:35:36;92.57;;;48.42;;
67508;SDS011;54354;44.724;11.284;2022-12-29T09:38:01;93.85;;;49.03;;
67508;SDS011;54354;44.724;11.284;2022-12-29T09:40:28;92.90;;;48.75;;
67508;SDS011;54354;44.724;11.284;2022-12-29T09:49:00;96.10;;;48.53;;
67508;SDS011;54354;44.724;11.284;2022-12-29T09:51:33;86.95;;;47.60;;
67508;SDS011;54354;44.724;11.284;2022-12-29T09:54:09;98.05;;;50.25;;
67508;SDS011;54354;44.724;11.284;2022-12-29T09:56:56;95.15;;;48.55;;
67508;SDS011;54354;44.724;11.284;2022-12-29T09:59:27;96.07;;;48.55;;
67508;SDS011;54354;44.724;11.284;2022-12-29T10:02:14;98.65;;;50.60;;
67508;SDS011;54354;44.724;11.284;2022-12-29T10:04:48;99.97;;;48.50;;
67508;SDS011;54354;44.724;11.284;2022-12-29T10:07:17;97.30;;;48.45;;
67508;SDS011;54354;44.724;11.284;2022-12-29T10:10:26;98.57;;;49.97;;
67508;SDS011;54354;44.724;11.284;2022-12-29T10:15:54;103.65;;;51.25;;
67508;SDS011;54354;44.724;11.284;2022-12-29T10:20:58;100.43;;;49.70;;
67508;SDS011;54354;44.724;11.284;2022-12-29T10:26:37;108.15;;;52.55;;
67508;SDS011;54354;44.724;11.284;2022-12-29T10:29:06;103.65;;;50.25;;
67508;SDS011;54354;44.724;11.284;2022-12-29T10:31:56;102.03;;;50.25;;
67508;SDS011;54354;44.724;11.284;2022-12-29T10:34:26;99.72;;;48.60;;
67508;SDS011;54354;44.724;11.284;2022-12-29T10:36:58;101.88;;;50.72;;
67508;SDS011;54354;44.724;11.284;2022-12-29T10:42:15;102.75;;;50.25;;
67508;SDS011;54354;44.724;11.284;2022-12-29T10:44:44;100.65;;;49.08;;
67508;SDS011;54354;44.724;11.284;2022-12-29T10:47:12;104.45;;;49.35;;
67508;SDS011;54354;44.724;11.284;2022-12-29T10:49:42;96.38;;;48.38;;
67508;SDS011;54354;44.724;11.284;2022-12-29T10:52:10;94.30;;;46.63;;
67508;SDS011;54354;44.724;11.284;2022-12-29T10:54:51;89.60;;;45.28;;
67508;SDS011;54354;44.724;11.284;2022-12-29T10:59:53;88.85;;;42.25;;
67508;SDS011;54354;44.724;11.284;2022-12-29T11:02:40;83.57;;;42.63;;
67508;SDS011;54354;44.724;11.284;2022-12-29T11:06:02;87.10;;;42.58;;
67508;SDS011;54354;44.724;11.284;2022-12-29T11:08:33;77.00;;;41.72;;
67508;SDS011;54354;44.724;11.284;2022-12-29T11:11:04;75.88;;;40.30;;
67508;SDS011;54354;44.724;11.284;2022-12-29T11:13:32;77.32;;;40.17;;
67508;SDS011;54354;44.724;11.284;2022-12-29T11:15:59;68.13;;;36.88;;
67508;SDS011;54354;44.724;11.284;2022-12-29T11:21:00;73.78;;;39.08;;
67508;SDS011;54354;44.724;11.284;2022-12-29T11:23:32;69.45;;;38.50;;
67508;SDS011;54354;44.724;11.284;2022-12-29T11:26:05;62.72;;;36.78;;
67508;SDS011;54354;44.724;11.284;2022-12-29T11:29:03;68.03;;;38.40;;
67508;SDS011;54354;44.724;11.284;2022-12-29T11:31:45;67.03;;;37.35;;
67508;SDS011;54354;44.724;11.284;2022-12-29T11:34:19;58.53;;;34.15;;
67508;SDS011;54354;44.724;11.284;2022-12-29T11:37:18;61.42;;;35.38;;
67508;SDS011;54354;44.724;11.284;2022-12-29T11:45:05;43.40;;;28.50;;
67508;SDS011;54354;44.724;11.284;2022-12-29T11:47:41;46.47;;;29.65;;
67508;SDS011;54354;44.724;11.284;2022-12-29T11:50:15;45.97;;;28.63;;
67508;SDS011;54354;44.724;11.284;2022-12-29T11:53:14;50.95;;;30.08;;
67508;SDS011;54354;44.724;11.284;2022-12-29T11:55:54;50.38;;;30.95;;
67508;SDS011;54354;44.724;11.284;2022-12-29T11:58:32;51.40;;;31.45;;
67508;SDS011;54354;44.724;11.284;2022-12-29T12:03:29;44.70;;;28.02;;
67508;SDS011;54354;44.724;11.284;2022-12-29T12:05:57;47.28;;;30.10;;
67508;SDS011;54354;44.724;11.284;2022-12-29T12:10:57;48.97;;;30.40;;
67508;SDS011;54354;44.724;11.284;2022-12-29T12:13:34;49.85;;;30.45;;
67508;SDS011;54354;44.724;11.284;2022-12-29T12:16:09;44.35;;;29.67;;
67508;SDS011;54354;44.724;11.284;2022-12-29T12:18:41;42.67;;;28.58;;
67508;SDS011;54354;44.724;11.284;2022-12-29T12:21:13;45.95;;;30.52;;
67508;SDS011;54354;44.724;11.284;2022-12-29T12:26:20;48.30;;;29.92;;
67508;SDS011;54354;44.724;11.284;2022-12-29T12:28:55;48.72;;;31.85;;
67508;SDS011;54354;44.724;11.284;2022-12-29T12:31:46;46.55;;;30.17;;
67508;SDS011;54354;44.724;11.284;2022-12-29T12:34:33;46.35;;;30.45;;
67508;SDS011;54354;44.724;11.284;2022-12-29T12:37:06;44.30;;;30.08;;
67508;SDS011;54354;44.724;11.284;2022-12-29T12:53:39;49.67;;;32.30;;
67508;SDS011;54354;44.724;11.284;2022-12-29T12:59:34;50.55;;;30.55;;
67508;SDS011;54354;44.724;11.284;2022-12-29T13:19:14;43.47;;;30.13;;
67508;SDS011;54354;44.724;11.284;2022-12-29T13:24:36;43.25;;;31.10;;
67508;SDS011;54354;44.724;11.284;2022-12-29T13:27:09;48.28;;;31.75;;
67508;SDS011;54354;44.724;11.284;2022-12-29T13:29:48;46.03;;;30.95;;
67508;SDS011;54354;44.724;11.284;2022-12-29T13:32:37;51.97;;;31.63;;
67508;SDS011;54354;44.724;11.284;2022-12-29T13:40:37;43.72;;;27.98;;
67508;SDS011;54354;44.724;11.284;2022-12-29T13:43:06;39.50;;;26.20;;
67508;SDS011;54354;44.724;11.284;2022-12-29T13:45:33;42.67;;;27.58;;
67508;SDS011;54354;44.724;11.284;2022-12-29T13:50:33;42.95;;;26.00;;
67508;SDS011;54354;44.724;11.284;2022-12-29T13:53:14;42.78;;;26.38;;
67508;SDS011;54354;44.724;11.284;2022-12-29T13:55:47;40.78;;;25.88;;
67508;SDS011;54354;44.724;11.284;2022-12-29T14:03:53;43.47;;;27.08;;
67508;SDS011;54354;44.724;11.284;2022-12-29T14:08:53;42.58;;;27.50;;
67508;SDS011;54354;44.724;11.284;2022-12-29T14:11:32;48.28;;;29.30;;
67508;SDS011;54354;44.724;11.284;2022-12-29T14:16:37;48.40;;;29.33;;
67508;SDS011;54354;44.724;11.284;2022-12-29T14:19:04;48.38;;;29.70;;
67508;SDS011;54354;44.724;11.284;2022-12-29T14:21:35;52.63;;;31.27;;
67508;SDS011;54354;44.724;11.284;2022-12-29T14:32:38;45.55;;;28.17;;
67508;SDS011;54354;44.724;11.284;2022-12-29T14:34:57;48.15;;;28.90;;
67508;SDS011;54354;44.724;11.284;2022-12-29T14:42:42;48.10;;;29.00;;
67508;SDS011;54354;44.724;11.284;2022-12-29T14:47:41;49.17;;;28.80;;
67508;SDS011;54354;44.724;11.284;2022-12-29T14:50:14;46.38;;;28.77;;
67508;SDS011;54354;44.724;11.284;2022-12-29T14:53:01;44.92;;;29.30;;
67508;SDS011;54354;44.724;11.284;2022-12-29T14:55:40;50.50;;;29.98;;
67508;SDS011;54354;44.724;11.284;2022-12-29T14:58:23;48.47;;;30.23;;
67508;SDS011;54354;44.724;11.284;2022-12-29T15:00:53;47.15;;;28.67;;
67508;SDS011;54354;44.724;11.284;2022-12-29T15:03:32;49.97;;;30.75;;
67508;SDS011;54354;44.724;11.284;2022-12-29T15:06:15;50.67;;;30.42;;
67508;SDS011;54354;44.724;11.284;2022-12-29T15:08:53;50.80;;;30.70;;
67508;SDS011;54354;44.724;11.284;2022-12-29T15:11:27;50.03;;;30.58;;
67508;SDS011;54354;44.724;11.284;2022-12-29T15:16:53;45.55;;;28.88;;
67508;SDS011;54354;44.724;11.284;2022-12-29T15:19:22;45.95;;;29.00;;
67508;SDS011;54354;44.724;11.284;2022-12-29T15:21:49;49.38;;;30.33;;
67508;SDS011;54354;44.724;11.284;2022-12-29T15:24:15;49.38;;;30.30;;
67508;SDS011;54354;44.724;11.284;2022-12-29T15:26:42;51.30;;;30.60;;
67508;SDS011;54354;44.724;11.284;2022-12-29T15:34:44;47.33;;;30.85;;
67508;SDS011;54354;44.724;11.284;2022-12-29T15:37:20;48.72;;;30.95;;
67508;SDS011;54354;44.724;11.284;2022-12-29T15:39:48;49.13;;;31.45;;
67508;SDS011;54354;44.724;11.284;2022-12-29T15:42:29;48.10;;;28.65;;
67508;SDS011;54354;44.724;11.284;2022-12-29T15:45:11;45.55;;;29.48;;
67508;SDS011;54354;44.724;11.284;2022-12-29T15:47:37;49.78;;;30.35;;
67508;SDS011;54354;44.724;11.284;2022-12-29T15:50:24;49.28;;;31.27;;
67508;SDS011;54354;44.724;11.284;2022-12-29T15:52:53;49.25;;;31.13;;
67508;SDS011;54354;44.724;11.284;2022-12-29T15:58:22;48.45;;;31.15;;
67508;SDS011;54354;44.724;11.284;2022-12-29T16:00:50;50.67;;;29.92;;
67508;SDS011;54354;44.724;11.284;2022-12-29T16:03:22;47.65;;;30.23;;
67508;SDS011;54354;44.724;11.284;2022-12-29T16:05:51;48.63;;;30.40;;
67508;SDS011;54354;44.724;11.284;2022-12-29T16:08:28;49.80;;;30.33;;
67508;SDS011;54354;44.724;11.284;2022-12-29T16:10:55;45.10;;;28.73;;
67508;SDS011;54354;44.724;11.284;2022-12-29T16:13:31;48.85;;;30.08;;
67508;SDS011;54354;44.724;11.284;2022-12-29T16:16:02;46.25;;;30.38;;
67508;SDS011;54354;44.724;11.284;2022-12-29T16:18:34;47.72;;;30.17;;
67508;SDS011;54354;44.724;11.284;2022-12-29T16:21:02;49.35;;;30.90;;
67508;SDS011;54354;44.724;11.284;2022-12-29T16:23:30;47.60;;;30.02;;
67508;SDS011;54354;44.724;11.284;2022-12-29T16:25:58;53.38;;;30.70;;
67508;SDS011;54354;44.724;11.284;2022-12-29T16:28:25;48.53;;;30.40;;
67508;SDS011;54354;44.724;11.284;2022-12-29T16:31:03;48.83;;;30.25;;
67508;SDS011;54354;44.724;11.284;2022-12-29T16:33:44;50.08;;;30.40;;
67508;SDS011;54354;44.724;11.284;2022-12-29T16:41:52;50.33;;;31.77;;
67508;SDS011;54354;44.724;11.284;2022-12-29T16:44:23;52.53;;;32.17;;
67508;SDS011;54354;44.724;11.284;2022-12-29T16:49:32;51.88;;;32.38;;
67508;SDS011;54354;44.724;11.284;2022-12-29T16:51:59;53.00;;;32.10;;
67508;SDS011;54354;44.724;11.284;2022-12-29T16:54:33;56.50;;;33.25;;
67508;SDS011;54354;44.724;11.284;2022-12-29T16:57:01;52.53;;;31.98;;
67508;SDS011;54354;44.724;11.284;2022-12-29T17:02:06;56.58;;;34.50;;
67508;SDS011;54354;44.724;11.284;2022-12-29T17:04:37;57.80;;;34.92;;
67508;SDS011;54354;44.724;11.284;2022-12-29T17:07:04;56.20;;;33.78;;
67508;SDS011;54354;44.724;11.284;2022-12-29T17:09:40;60.40;;;35.85;;